Velarde, New Mexico
Current Conditions -  °F | °C
As of 10:55 AM on Friday 24 Oct 2014 (Local Time) from KLAM Reporting Station
Clear Clear  
Wind Chill: 58°   Ceiling: Unl
Heat Index: 58°   Visibility: 10mi
Dew Point: 32°   Wind: 0mph
Humidity: 37%   Direction: NA
Pressure: 30.43"   Gusts: NA
Location:  36.16°N, 105.97°W
Report Text: KLAM 241655Z AUTO 00000KT 10SM CLR 15/00 A3043 RMK AO2 T01470001
Loading
Personal Weather Stations






























Interactive Weather Map New forecast layout! Learn more

10-Day Weather Forecast

Advertisements
Track Severe Weather on mobile